createdAt,value
2022-12-27T00:03:37.358Z,7.50
2022-12-27T00:08:40.006Z,7.50
2022-12-27T00:13:41.543Z,7.40
2022-12-27T00:18:43.064Z,7.30
2022-12-27T00:23:44.709Z,7.30
2022-12-27T00:28:46.224Z,7.30
2022-12-27T00:33:47.704Z,7.30
2022-12-27T00:38:49.337Z,7.20
2022-12-27T00:43:50.818Z,7.10
2022-12-27T00:48:52.338Z,7.00
2022-12-27T00:53:53.853Z,6.90
2022-12-27T00:58:55.350Z,6.90
2022-12-27T01:03:56.834Z,6.70
2022-12-27T01:08:59.123Z,6.70
2022-12-27T01:14:00.613Z,6.60
2022-12-27T01:19:02.134Z,6.50
2022-12-27T01:24:03.604Z,6.50
2022-12-27T01:29:05.260Z,6.40
2022-12-27T01:34:06.892Z,6.30
2022-12-27T01:39:08.514Z,6.30
2022-12-27T01:44:10.076Z,6.20
2022-12-27T01:49:11.575Z,6.20
2022-12-27T01:54:13.247Z,6.10
2022-12-27T01:59:14.715Z,6.10
2022-12-27T02:04:16.222Z,6.00
2022-12-27T02:09:17.729Z,6.00
2022-12-27T02:14:23.395Z,6.00
2022-12-27T02:19:27.631Z,5.90
2022-12-27T02:24:29.153Z,5.80
2022-12-27T02:29:30.699Z,5.70
2022-12-27T02:34:32.163Z,5.60
2022-12-27T02:39:33.799Z,5.40
2022-12-27T02:44:35.299Z,5.40
2022-12-27T02:49:36.767Z,5.30
2022-12-27T02:54:38.271Z,5.30
2022-12-27T02:59:39.760Z,5.30
2022-12-27T03:04:41.276Z,5.20
2022-12-27T03:09:42.869Z,5.20
2022-12-27T03:14:44.369Z,5.20
2022-12-27T03:19:45.876Z,5.10
2022-12-27T03:24:47.331Z,5.10
2022-12-27T03:29:48.960Z,5.00
2022-12-27T03:34:50.425Z,5.00
2022-12-27T03:39:52.040Z,4.90
2022-12-27T03:44:53.548Z,4.90
2022-12-27T03:49:55.056Z,4.80
2022-12-27T03:54:56.539Z,4.60
2022-12-27T03:59:58.048Z,4.50
2022-12-27T04:04:59.549Z,4.40
2022-12-27T04:10:01.049Z,4.30
2022-12-27T04:15:02.535Z,4.20
2022-12-27T04:20:04.171Z,4.00
2022-12-27T04:25:05.721Z,3.90
2022-12-27T04:30:07.391Z,3.80
2022-12-27T04:35:08.919Z,3.70
2022-12-27T04:40:10.548Z,3.60
2022-12-27T04:45:15.419Z,3.60
2022-12-27T04:50:17.202Z,3.50
2022-12-27T04:55:18.718Z,3.40
2022-12-27T05:00:20.232Z,3.30
2022-12-27T05:05:21.771Z,3.30
2022-12-27T05:10:23.247Z,3.30
2022-12-27T05:15:24.766Z,3.20
2022-12-27T05:20:26.230Z,3.20
2022-12-27T05:25:27.725Z,3.20
2022-12-27T05:30:29.220Z,3.10
2022-12-27T05:35:30.743Z,3.10
2022-12-27T05:40:32.270Z,3.10
2022-12-27T05:45:33.907Z,3.00
2022-12-27T05:50:35.409Z,3.10
2022-12-27T05:55:37.054Z,3.10
2022-12-27T06:00:38.571Z,3.20
2022-12-27T06:05:40.235Z,3.30
2022-12-27T06:10:41.867Z,3.20
2022-12-27T06:15:43.362Z,3.10
2022-12-27T06:20:44.865Z,3.10
2022-12-27T06:25:47.309Z,3.00
2022-12-27T06:30:49.479Z,3.00
2022-12-27T06:35:51.106Z,2.90
2022-12-27T06:40:52.618Z,2.90
2022-12-27T06:45:54.168Z,2.90
2022-12-27T06:50:55.695Z,2.90
2022-12-27T06:55:57.131Z,2.80
2022-12-27T07:00:58.788Z,2.80
2022-12-27T07:06:00.258Z,2.80
2022-12-27T07:11:01.736Z,2.90
2022-12-27T07:16:03.407Z,2.80
2022-12-27T07:21:04.996Z,2.80
2022-12-27T07:26:06.498Z,2.90
2022-12-27T07:31:07.991Z,2.90
2022-12-27T07:36:09.543Z,3.00
2022-12-27T07:41:11.056Z,3.10
2022-12-27T07:46:12.550Z,3.20
2022-12-27T07:51:14.023Z,3.30
2022-12-27T07:56:20.150Z,3.50
2022-12-27T08:01:25.161Z,3.60
2022-12-27T08:06:26.708Z,3.70
2022-12-27T08:11:28.165Z,3.90
2022-12-27T08:16:29.900Z,4.10
2022-12-27T08:21:31.412Z,4.20
2022-12-27T08:26:32.852Z,4.40
2022-12-27T08:31:34.478Z,4.50
2022-12-27T08:36:54.516Z,4.70
2022-12-27T08:41:56.932Z,4.90
2022-12-27T08:46:58.558Z,5.00
2022-12-27T08:52:00.095Z,5.10
2022-12-27T08:57:01.615Z,5.20
2022-12-27T09:02:03.216Z,5.20
2022-12-27T09:07:04.756Z,5.40
2022-12-27T09:12:09.278Z,5.50
2022-12-27T09:17:10.930Z,5.70
2022-12-27T09:22:12.440Z,5.80
2022-12-27T09:27:13.953Z,5.90
2022-12-27T09:32:15.462Z,6.00
2022-12-27T09:37:17.093Z,6.00
2022-12-27T09:47:40.148Z,6.30
2022-12-27T09:52:41.618Z,6.40
2022-12-27T09:57:43.090Z,6.50
2022-12-27T10:02:44.740Z,6.50
2022-12-27T10:07:46.314Z,6.60
2022-12-27T10:12:47.836Z,6.70
2022-12-27T10:17:53.079Z,6.80
2022-12-27T10:22:55.132Z,6.90
2022-12-27T10:27:56.553Z,7.00
2022-12-27T10:32:57.986Z,7.00
2022-12-27T10:37:59.444Z,7.20
2022-12-27T10:43:00.914Z,7.30
2022-12-27T10:48:02.369Z,7.40
2022-12-27T10:53:03.848Z,7.40
2022-12-27T10:58:05.330Z,7.50
2022-12-27T11:03:06.808Z,7.70
2022-12-27T11:08:08.907Z,7.70
2022-12-27T11:13:10.359Z,7.80
2022-12-27T11:18:11.796Z,8.10
2022-12-27T11:23:13.277Z,7.90
2022-12-27T11:28:14.748Z,7.90
2022-12-27T11:33:19.666Z,7.80
2022-12-27T11:38:25.684Z,7.80
2022-12-27T11:43:27.154Z,7.90
2022-12-27T11:48:28.591Z,7.80
2022-12-27T11:53:30.088Z,7.90
2022-12-27T11:58:31.571Z,7.90
2022-12-27T12:03:33.128Z,8.30
2022-12-27T12:08:34.591Z,8.40
2022-12-27T12:13:36.068Z,8.50
2022-12-27T12:18:37.668Z,8.50
2022-12-27T12:23:39.137Z,8.50
2022-12-27T12:28:58.247Z,8.30
2022-12-27T12:34:00.413Z,8.10
2022-12-27T12:39:01.883Z,8.00
2022-12-27T12:44:03.313Z,7.80
2022-12-27T12:49:04.955Z,7.70
2022-12-27T12:54:06.419Z,7.60
2022-12-27T12:59:07.851Z,7.50
2022-12-27T13:04:09.288Z,7.40
2022-12-27T13:09:10.753Z,7.30
2022-12-27T13:14:12.185Z,7.30
2022-12-27T13:19:13.607Z,7.20
2022-12-27T13:24:15.072Z,7.10
2022-12-27T13:29:16.518Z,6.90
2022-12-27T13:34:17.978Z,6.80
2022-12-27T13:39:19.450Z,6.70
2022-12-27T13:44:20.925Z,6.60
2022-12-27T13:49:22.452Z,6.60
2022-12-27T13:54:23.904Z,6.50
2022-12-27T13:59:25.409Z,6.40
2022-12-27T14:04:26.847Z,6.30
2022-12-27T14:09:28.317Z,6.20
2022-12-27T14:14:29.798Z,6.20
2022-12-27T14:19:31.230Z,6.20
2022-12-27T14:24:32.664Z,6.20
2022-12-27T14:29:34.111Z,6.20
2022-12-27T14:34:35.618Z,6.20
2022-12-27T14:39:37.233Z,6.10
2022-12-27T14:44:38.708Z,6.00
2022-12-27T14:49:40.174Z,6.00
2022-12-27T14:54:41.673Z,6.00
2022-12-27T14:59:43.201Z,5.90
2022-12-27T15:04:44.686Z,5.90
2022-12-27T15:09:46.109Z,5.90
2022-12-27T15:14:48.121Z,5.80
2022-12-27T15:19:49.570Z,5.80
2022-12-27T15:24:50.999Z,5.80
2022-12-27T15:29:52.425Z,5.80
2022-12-27T15:34:53.887Z,5.70
2022-12-27T15:39:55.328Z,5.70
2022-12-27T15:44:56.951Z,5.70
2022-12-27T15:49:58.386Z,5.70
2022-12-27T15:54:59.852Z,5.60
2022-12-27T16:00:01.452Z,5.60
2022-12-27T16:05:02.955Z,5.60
2022-12-27T16:10:04.405Z,5.60
2022-12-27T16:15:06.035Z,5.50
2022-12-27T16:20:07.465Z,5.50
2022-12-27T16:25:08.923Z,5.50
2022-12-27T16:30:10.557Z,5.50
2022-12-27T16:35:12.225Z,5.50
2022-12-27T16:40:13.699Z,5.50
2022-12-27T16:45:15.334Z,5.40
2022-12-27T16:50:16.802Z,5.40
2022-12-27T16:55:18.260Z,5.40
2022-12-27T17:00:19.773Z,5.40
2022-12-27T17:05:21.300Z,5.40
2022-12-27T17:10:22.823Z,5.40
2022-12-27T17:15:24.343Z,5.40
2022-12-27T17:20:25.817Z,5.40
2022-12-27T17:25:27.367Z,5.40
2022-12-27T17:30:28.795Z,5.30
2022-12-27T17:35:30.265Z,5.40
2022-12-27T17:40:31.896Z,5.30
2022-12-27T17:45:33.391Z,5.20
2022-12-27T17:50:34.919Z,5.20
2022-12-27T17:55:36.399Z,5.20
2022-12-27T18:00:38.704Z,5.10
2022-12-27T18:05:40.184Z,5.00
2022-12-27T18:10:41.641Z,4.90
2022-12-27T18:15:43.137Z,4.70
2022-12-27T18:20:44.633Z,4.60
2022-12-27T18:25:46.102Z,4.50
2022-12-27T18:30:47.580Z,4.30
2022-12-27T18:35:49.074Z,4.20
2022-12-27T18:40:53.167Z,4.00
2022-12-27T18:45:54.929Z,3.90
2022-12-27T18:50:56.648Z,3.70
2022-12-27T18:55:58.098Z,3.60
2022-12-27T19:00:59.618Z,3.50
2022-12-27T19:06:01.131Z,3.40
2022-12-27T19:11:02.595Z,3.40
2022-12-27T19:16:04.107Z,3.30
2022-12-27T19:21:05.557Z,3.40
2022-12-27T19:26:07.012Z,3.50
2022-12-27T19:31:08.441Z,3.60
2022-12-27T19:36:09.899Z,3.70
2022-12-27T19:41:11.365Z,3.70
2022-12-27T19:46:13.011Z,3.80
2022-12-27T19:51:14.511Z,3.80
2022-12-27T19:56:15.965Z,3.80
2022-12-27T20:01:17.468Z,3.80
2022-12-27T20:06:20.829Z,3.70
2022-12-27T20:11:26.715Z,3.70
2022-12-27T20:16:28.172Z,3.60
2022-12-27T20:21:29.624Z,3.60
2022-12-27T20:26:31.083Z,3.60
2022-12-27T20:31:32.561Z,3.60
2022-12-27T20:36:34.024Z,3.60
2022-12-27T20:41:35.449Z,3.70
2022-12-27T20:46:36.884Z,3.70
2022-12-27T20:51:38.310Z,3.80
2022-12-27T20:56:39.741Z,3.80
2022-12-27T21:01:41.323Z,3.80
2022-12-27T21:06:42.860Z,3.90
2022-12-27T21:11:44.337Z,3.80
2022-12-27T21:16:45.821Z,3.70
2022-12-27T21:21:47.277Z,3.70
2022-12-27T21:26:51.945Z,3.60
2022-12-27T21:31:57.591Z,3.50
2022-12-27T21:36:59.133Z,3.40
2022-12-27T21:42:00.792Z,3.30
2022-12-27T21:47:02.331Z,3.20
2022-12-27T21:52:14.825Z,3.20
2022-12-27T21:57:20.750Z,3.20
2022-12-27T22:02:22.870Z,3.10
2022-12-27T22:07:24.478Z,3.00
2022-12-27T22:12:25.948Z,2.90
2022-12-27T22:17:32.939Z,2.80
2022-12-27T22:22:34.436Z,2.90
2022-12-27T22:27:35.907Z,2.90
2022-12-27T22:32:37.351Z,2.90
2022-12-27T22:37:38.835Z,2.80
2022-12-27T22:42:40.311Z,2.70
2022-12-27T22:47:41.762Z,2.60
2022-12-27T22:52:43.230Z,2.60
2022-12-27T22:57:44.690Z,2.60
2022-12-27T23:02:46.213Z,2.70
2022-12-27T23:08:06.058Z,2.80
2022-12-27T23:13:08.300Z,2.90
2022-12-27T23:18:09.723Z,2.90
2022-12-27T23:23:11.179Z,3.00
2022-12-27T23:28:12.609Z,3.00
2022-12-27T23:33:14.026Z,3.00
2022-12-27T23:38:15.487Z,3.00
2022-12-27T23:43:50.410Z,2.90
2022-12-27T23:48:38.359Z,2.90
2022-12-27T23:53:39.823Z,2.80
2022-12-27T23:58:41.259Z,2.70
